Fredricksburg, California
Current Conditions -  °F | °C
As of 2:53 PM on Friday 28 Nov 2014 (Local Time) from KTVL Reporting Station
Few Clouds Few Clouds  
Wind Chill: 54°   Ceiling: Unl
Heat Index: 54°   Visibility: 10mi
Dew Point: -2°   Wind: 10mph
Humidity: 10%   Direction: 210°SSW
Pressure: 29.98"   Gusts: 25mph
Location:  38.6924°N, 119.835°W
Report Text: KTVL 282253Z AUTO 21009G22KT 10SM FEW120 12/M19 A2998 RMK AO2 PK WND 20027/2233 SLP109 T01221189
Loading
Personal Weather Stations






























Interactive Weather Map New forecast layout! Learn more

10-Day Weather Forecast

Advertisements
Track Severe Weather on mobile